sensor_id;sensor_type;location;lat;lon;timestamp;P1;durP1;ratioP1;P2;durP2;ratioP2
75586;SDS011;64164;50.156;14.570;2022-12-18T00:03:47;0.63;;;0.63;;
75586;SDS011;64164;50.156;14.570;2022-12-18T00:06:13;0.93;;;0.88;;
75586;SDS011;64164;50.156;14.570;2022-12-18T00:08:39;1.33;;;1.23;;
75586;SDS011;64164;50.156;14.570;2022-12-18T00:11:05;5.53;;;1.10;;
75586;SDS011;64164;50.156;14.570;2022-12-18T00:13:31;5.10;;;0.70;;
75586;SDS011;64164;50.156;14.570;2022-12-18T00:16:00;3.47;;;2.07;;
75586;SDS011;64164;50.156;14.570;2022-12-18T00:18:26;2.88;;;2.45;;
75586;SDS011;64164;50.156;14.570;2022-12-18T00:20:51;3.37;;;1.03;;
75586;SDS011;64164;50.156;14.570;2022-12-18T00:23:16;7.67;;;3.03;;
75586;SDS011;64164;50.156;14.570;2022-12-18T00:25:41;11.20;;;4.00;;
75586;SDS011;64164;50.156;14.570;2022-12-18T00:28:06;4.50;;;3.07;;
75586;SDS011;64164;50.156;14.570;2022-12-18T00:30:32;6.28;;;3.58;;
75586;SDS011;64164;50.156;14.570;2022-12-18T00:32:57;9.80;;;4.20;;
75586;SDS011;64164;50.156;14.570;2022-12-18T00:35:22;4.43;;;3.77;;
75586;SDS011;64164;50.156;14.570;2022-12-18T00:37:47;4.80;;;2.27;;
75586;SDS011;64164;50.156;14.570;2022-12-18T00:40:13;3.47;;;2.30;;
75586;SDS011;64164;50.156;14.570;2022-12-18T00:42:38;0.50;;;0.40;;
75586;SDS011;64164;50.156;14.570;2022-12-18T00:45:25;3.22;;;2.38;;
75586;SDS011;64164;50.156;14.570;2022-12-18T00:47:50;13.35;;;4.50;;
75586;SDS011;64164;50.156;14.570;2022-12-18T00:50:16;1.43;;;1.33;;
75586;SDS011;64164;50.156;14.570;2022-12-18T00:52:41;6.37;;;2.07;;
75586;SDS011;64164;50.156;14.570;2022-12-18T00:55:06;0.73;;;0.67;;
75586;SDS011;64164;50.156;14.570;2022-12-18T00:57:32;2.28;;;1.95;;
75586;SDS011;64164;50.156;14.570;2022-12-18T00:59:57;5.70;;;2.10;;
75586;SDS011;64164;50.156;14.570;2022-12-18T01:02:22;1.97;;;1.57;;
75586;SDS011;64164;50.156;14.570;2022-12-18T01:04:47;3.03;;;2.67;;
75586;SDS011;64164;50.156;14.570;2022-12-18T01:07:13;2.97;;;2.13;;
75586;SDS011;64164;50.156;14.570;2022-12-18T01:09:38;2.70;;;2.43;;
75586;SDS011;64164;50.156;14.570;2022-12-18T01:12:03;13.40;;;2.40;;
75586;SDS011;64164;50.156;14.570;2022-12-18T01:14:28;7.95;;;2.35;;
75586;SDS011;64164;50.156;14.570;2022-12-18T01:16:53;6.03;;;3.43;;
75586;SDS011;64164;50.156;14.570;2022-12-18T01:19:19;3.40;;;2.13;;
75586;SDS011;64164;50.156;14.570;2022-12-18T01:21:44;9.00;;;3.30;;
75586;SDS011;64164;50.156;14.570;2022-12-18T01:24:09;10.83;;;2.63;;
75586;SDS011;64164;50.156;14.570;2022-12-18T01:26:35;3.75;;;3.10;;
75586;SDS011;64164;50.156;14.570;2022-12-18T01:29:00;7.77;;;3.17;;
75586;SDS011;64164;50.156;14.570;2022-12-18T01:31:26;8.47;;;3.00;;
75586;SDS011;64164;50.156;14.570;2022-12-18T01:33:52;9.00;;;2.97;;
75586;SDS011;64164;50.156;14.570;2022-12-18T01:36:19;8.40;;;5.25;;
75586;SDS011;64164;50.156;14.570;2022-12-18T01:38:44;9.82;;;3.38;;
75586;SDS011;64164;50.156;14.570;2022-12-18T01:41:10;1.75;;;1.60;;
75586;SDS011;64164;50.156;14.570;2022-12-18T01:46:06;5.70;;;4.78;;
75586;SDS011;64164;50.156;14.570;2022-12-18T01:48:32;5.27;;;3.17;;
75586;SDS011;64164;50.156;14.570;2022-12-18T01:50:57;7.13;;;2.63;;
75586;SDS011;64164;50.156;14.570;2022-12-18T01:53:25;2.67;;;2.03;;
75586;SDS011;64164;50.156;14.570;2022-12-18T01:55:55;6.07;;;4.00;;
75586;SDS011;64164;50.156;14.570;2022-12-18T01:58:22;31.25;;;5.45;;
75586;SDS011;64164;50.156;14.570;2022-12-18T02:00:49;6.20;;;3.92;;
75586;SDS011;64164;50.156;14.570;2022-12-18T02:03:14;8.20;;;2.70;;
75586;SDS011;64164;50.156;14.570;2022-12-18T02:08:28;15.50;;;3.58;;
75586;SDS011;64164;50.156;14.570;2022-12-18T02:13:35;7.27;;;4.27;;
75586;SDS011;64164;50.156;14.570;2022-12-18T02:18:33;8.45;;;2.65;;
75586;SDS011;64164;50.156;14.570;2022-12-18T02:21:08;4.13;;;2.13;;
75586;SDS011;64164;50.156;14.570;2022-12-18T02:26:35;6.15;;;4.00;;
75586;SDS011;64164;50.156;14.570;2022-12-18T02:29:08;4.10;;;2.28;;
75586;SDS011;64164;50.156;14.570;2022-12-18T02:31:42;13.63;;;5.75;;
75586;SDS011;64164;50.156;14.570;2022-12-18T02:34:08;6.72;;;4.35;;
75586;SDS011;64164;50.156;14.570;2022-12-18T02:36:34;3.92;;;2.67;;
75586;SDS011;64164;50.156;14.570;2022-12-18T02:39:01;13.77;;;5.10;;
75586;SDS011;64164;50.156;14.570;2022-12-18T02:41:26;4.10;;;2.45;;
75586;SDS011;64164;50.156;14.570;2022-12-18T02:43:53;3.58;;;2.63;;
75586;SDS011;64164;50.156;14.570;2022-12-18T02:46:23;6.65;;;4.00;;
75586;SDS011;64164;50.156;14.570;2022-12-18T02:48:50;9.60;;;4.78;;
75586;SDS011;64164;50.156;14.570;2022-12-18T02:53:50;17.45;;;4.28;;
75586;SDS011;64164;50.156;14.570;2022-12-18T02:56:19;8.43;;;5.35;;
75586;SDS011;64164;50.156;14.570;2022-12-18T03:03:42;10.52;;;3.35;;
75586;SDS011;64164;50.156;14.570;2022-12-18T03:06:10;4.35;;;2.00;;
75586;SDS011;64164;50.156;14.570;2022-12-18T03:08:39;5.57;;;3.30;;
75586;SDS011;64164;50.156;14.570;2022-12-18T03:11:07;11.50;;;4.03;;
75586;SDS011;64164;50.156;14.570;2022-12-18T03:13:34;22.23;;;7.57;;
75586;SDS011;64164;50.156;14.570;2022-12-18T03:16:00;17.30;;;5.70;;
75586;SDS011;64164;50.156;14.570;2022-12-18T03:18:32;22.13;;;7.57;;
75586;SDS011;64164;50.156;14.570;2022-12-18T03:20:59;9.02;;;4.13;;
75586;SDS011;64164;50.156;14.570;2022-12-18T03:23:29;24.98;;;7.88;;
75586;SDS011;64164;50.156;14.570;2022-12-18T03:25:57;9.70;;;5.60;;
75586;SDS011;64164;50.156;14.570;2022-12-18T03:28:23;13.23;;;5.28;;
75586;SDS011;64164;50.156;14.570;2022-12-18T03:30:57;12.90;;;6.53;;
75586;SDS011;64164;50.156;14.570;2022-12-18T03:33:46;12.93;;;6.10;;
75586;SDS011;64164;50.156;14.570;2022-12-18T03:36:09;35.17;;;8.65;;
75586;SDS011;64164;50.156;14.570;2022-12-18T03:38:34;19.57;;;6.90;;
75586;SDS011;64164;50.156;14.570;2022-12-18T03:41:04;16.73;;;6.27;;
75586;SDS011;64164;50.156;14.570;2022-12-18T03:48:46;10.75;;;6.47;;
75586;SDS011;64164;50.156;14.570;2022-12-18T03:51:32;19.55;;;8.85;;
75586;SDS011;64164;50.156;14.570;2022-12-18T03:54:00;11.55;;;7.75;;
75586;SDS011;64164;50.156;14.570;2022-12-18T03:56:28;20.48;;;7.82;;
75586;SDS011;64164;50.156;14.570;2022-12-18T03:58:54;18.48;;;8.77;;
75586;SDS011;64164;50.156;14.570;2022-12-18T04:01:20;25.67;;;8.17;;
75586;SDS011;64164;50.156;14.570;2022-12-18T04:03:48;18.85;;;10.98;;
75586;SDS011;64164;50.156;14.570;2022-12-18T04:06:14;21.38;;;10.82;;
75586;SDS011;64164;50.156;14.570;2022-12-18T04:08:40;12.90;;;7.13;;
75586;SDS011;64164;50.156;14.570;2022-12-18T04:11:06;26.75;;;9.40;;
75586;SDS011;64164;50.156;14.570;2022-12-18T04:13:35;20.37;;;8.53;;
75586;SDS011;64164;50.156;14.570;2022-12-18T04:16:00;29.95;;;9.90;;
75586;SDS011;64164;50.156;14.570;2022-12-18T04:18:26;18.85;;;9.85;;
75586;SDS011;64164;50.156;14.570;2022-12-18T04:20:51;17.13;;;8.77;;
75586;SDS011;64164;50.156;14.570;2022-12-18T04:23:16;18.50;;;9.23;;
75586;SDS011;64164;50.156;14.570;2022-12-18T04:25:41;17.53;;;9.17;;
75586;SDS011;64164;50.156;14.570;2022-12-18T04:28:07;20.70;;;8.70;;
75586;SDS011;64164;50.156;14.570;2022-12-18T04:30:32;30.83;;;10.93;;
75586;SDS011;64164;50.156;14.570;2022-12-18T04:32:57;21.90;;;9.17;;
75586;SDS011;64164;50.156;14.570;2022-12-18T04:35:22;34.03;;;9.57;;
75586;SDS011;64164;50.156;14.570;2022-12-18T04:37:47;15.83;;;8.00;;
75586;SDS011;64164;50.156;14.570;2022-12-18T04:40:13;15.03;;;7.93;;
75586;SDS011;64164;50.156;14.570;2022-12-18T04:42:38;26.50;;;10.47;;
75586;SDS011;64164;50.156;14.570;2022-12-18T04:45:04;17.55;;;9.13;;
75586;SDS011;64164;50.156;14.570;2022-12-18T04:47:29;27.15;;;8.73;;
75586;SDS011;64164;50.156;14.570;2022-12-18T04:49:55;13.57;;;7.85;;
75586;SDS011;64164;50.156;14.570;2022-12-18T04:52:20;24.10;;;10.27;;
75586;SDS011;64164;50.156;14.570;2022-12-18T04:54:45;17.93;;;9.03;;
75586;SDS011;64164;50.156;14.570;2022-12-18T04:57:11;11.27;;;7.77;;
75586;SDS011;64164;50.156;14.570;2022-12-18T04:59:36;16.60;;;7.70;;
75586;SDS011;64164;50.156;14.570;2022-12-18T05:02:01;14.10;;;6.13;;
75586;SDS011;64164;50.156;14.570;2022-12-18T05:04:26;20.57;;;5.63;;
75586;SDS011;64164;50.156;14.570;2022-12-18T05:06:51;20.13;;;7.90;;
75586;SDS011;64164;50.156;14.570;2022-12-18T05:09:17;17.83;;;8.50;;
75586;SDS011;64164;50.156;14.570;2022-12-18T05:11:42;13.80;;;7.33;;
75586;SDS011;64164;50.156;14.570;2022-12-18T05:14:07;13.57;;;6.87;;
75586;SDS011;64164;50.156;14.570;2022-12-18T05:16:32;15.27;;;7.20;;
75586;SDS011;64164;50.156;14.570;2022-12-18T05:18:57;10.00;;;5.63;;
75586;SDS011;64164;50.156;14.570;2022-12-18T05:21:23;21.80;;;8.30;;
75586;SDS011;64164;50.156;14.570;2022-12-18T05:23:48;22.23;;;6.93;;
75586;SDS011;64164;50.156;14.570;2022-12-18T05:26:15;11.97;;;6.57;;
75586;SDS011;64164;50.156;14.570;2022-12-18T05:28:40;13.02;;;6.85;;
75586;SDS011;64164;50.156;14.570;2022-12-18T05:31:05;19.63;;;6.77;;
75586;SDS011;64164;50.156;14.570;2022-12-18T05:33:32;14.87;;;5.17;;
75586;SDS011;64164;50.156;14.570;2022-12-18T05:35:58;15.77;;;8.43;;
75586;SDS011;64164;50.156;14.570;2022-12-18T05:38:24;14.65;;;7.15;;
75586;SDS011;64164;50.156;14.570;2022-12-18T05:40:50;10.70;;;5.95;;
75586;SDS011;64164;50.156;14.570;2022-12-18T05:43:16;16.08;;;9.93;;
75586;SDS011;64164;50.156;14.570;2022-12-18T05:45:41;16.52;;;8.10;;
75586;SDS011;64164;50.156;14.570;2022-12-18T05:48:06;15.53;;;7.50;;
75586;SDS011;64164;50.156;14.570;2022-12-18T05:50:35;16.08;;;7.30;;
75586;SDS011;64164;50.156;14.570;2022-12-18T05:53:01;18.33;;;7.10;;
75586;SDS011;64164;50.156;14.570;2022-12-18T05:55:26;18.55;;;8.95;;
75586;SDS011;64164;50.156;14.570;2022-12-18T05:57:51;16.43;;;7.00;;
75586;SDS011;64164;50.156;14.570;2022-12-18T06:00:17;19.97;;;7.63;;
75586;SDS011;64164;50.156;14.570;2022-12-18T06:02:42;18.05;;;6.40;;
75586;SDS011;64164;50.156;14.570;2022-12-18T06:05:07;13.70;;;6.87;;
75586;SDS011;64164;50.156;14.570;2022-12-18T06:07:32;12.38;;;6.22;;
75586;SDS011;64164;50.156;14.570;2022-12-18T06:09:58;12.77;;;6.50;;
75586;SDS011;64164;50.156;14.570;2022-12-18T06:12:23;15.47;;;7.77;;
75586;SDS011;64164;50.156;14.570;2022-12-18T06:14:48;15.30;;;6.47;;
75586;SDS011;64164;50.156;14.570;2022-12-18T06:17:14;15.60;;;6.28;;
75586;SDS011;64164;50.156;14.570;2022-12-18T06:19:39;14.23;;;4.93;;
75586;SDS011;64164;50.156;14.570;2022-12-18T06:22:05;17.87;;;8.80;;
75586;SDS011;64164;50.156;14.570;2022-12-18T06:24:30;19.33;;;7.87;;
75586;SDS011;64164;50.156;14.570;2022-12-18T06:26:55;24.57;;;7.83;;
75586;SDS011;64164;50.156;14.570;2022-12-18T06:29:20;15.20;;;7.30;;
75586;SDS011;64164;50.156;14.570;2022-12-18T06:31:45;28.80;;;10.20;;
75586;SDS011;64164;50.156;14.570;2022-12-18T06:34:11;16.73;;;7.87;;
75586;SDS011;64164;50.156;14.570;2022-12-18T06:36:36;18.20;;;8.63;;
75586;SDS011;64164;50.156;14.570;2022-12-18T06:39:01;20.67;;;7.87;;
75586;SDS011;64164;50.156;14.570;2022-12-18T06:41:26;21.57;;;9.77;;
75586;SDS011;64164;50.156;14.570;2022-12-18T06:43:51;22.53;;;9.17;;
75586;SDS011;64164;50.156;14.570;2022-12-18T06:46:17;15.10;;;9.13;;
75586;SDS011;64164;50.156;14.570;2022-12-18T06:48:42;11.13;;;4.90;;
75586;SDS011;64164;50.156;14.570;2022-12-18T06:51:07;14.97;;;6.60;;
75586;SDS011;64164;50.156;14.570;2022-12-18T06:53:32;15.33;;;6.57;;
75586;SDS011;64164;50.156;14.570;2022-12-18T06:56:05;15.02;;;4.82;;
75586;SDS011;64164;50.156;14.570;2022-12-18T06:58:31;18.83;;;4.15;;
75586;SDS011;64164;50.156;14.570;2022-12-18T07:00:59;18.40;;;5.90;;
75586;SDS011;64164;50.156;14.570;2022-12-18T07:03:25;14.65;;;4.47;;
75586;SDS011;64164;50.156;14.570;2022-12-18T07:05:50;14.47;;;6.40;;
75586;SDS011;64164;50.156;14.570;2022-12-18T07:08:15;7.97;;;5.30;;
75586;SDS011;64164;50.156;14.570;2022-12-18T07:10:41;12.83;;;6.23;;
75586;SDS011;64164;50.156;14.570;2022-12-18T07:13:07;8.95;;;4.70;;
75586;SDS011;64164;50.156;14.570;2022-12-18T07:15:32;15.07;;;6.28;;
75586;SDS011;64164;50.156;14.570;2022-12-18T07:17:57;12.37;;;5.40;;
75586;SDS011;64164;50.156;14.570;2022-12-18T07:20:23;15.97;;;4.27;;
75586;SDS011;64164;50.156;14.570;2022-12-18T07:22:48;10.23;;;4.80;;
75586;SDS011;64164;50.156;14.570;2022-12-18T07:25:13;12.50;;;5.90;;
75586;SDS011;64164;50.156;14.570;2022-12-18T07:27:38;14.40;;;5.67;;
75586;SDS011;64164;50.156;14.570;2022-12-18T07:30:04;19.90;;;8.40;;
75586;SDS011;64164;50.156;14.570;2022-12-18T07:32:29;8.43;;;2.85;;
75586;SDS011;64164;50.156;14.570;2022-12-18T07:34:55;19.15;;;5.78;;
75586;SDS011;64164;50.156;14.570;2022-12-18T07:37:20;18.07;;;5.47;;
75586;SDS011;64164;50.156;14.570;2022-12-18T07:39:45;12.07;;;3.53;;
75586;SDS011;64164;50.156;14.570;2022-12-18T07:42:10;13.87;;;4.80;;
75586;SDS011;64164;50.156;14.570;2022-12-18T07:44:54;19.73;;;5.25;;
75586;SDS011;64164;50.156;14.570;2022-12-18T07:47:19;24.70;;;7.23;;
75586;SDS011;64164;50.156;14.570;2022-12-18T07:49:44;14.00;;;5.43;;
75586;SDS011;64164;50.156;14.570;2022-12-18T07:52:09;8.83;;;4.07;;
75586;SDS011;64164;50.156;14.570;2022-12-18T07:54:37;17.90;;;5.97;;
75586;SDS011;64164;50.156;14.570;2022-12-18T07:57:02;11.20;;;3.77;;
75586;SDS011;64164;50.156;14.570;2022-12-18T07:59:27;11.87;;;5.23;;
75586;SDS011;64164;50.156;14.570;2022-12-18T08:01:52;18.07;;;4.43;;
75586;SDS011;64164;50.156;14.570;2022-12-18T08:04:18;9.00;;;3.47;;
75586;SDS011;64164;50.156;14.570;2022-12-18T08:06:43;8.83;;;3.90;;
75586;SDS011;64164;50.156;14.570;2022-12-18T08:09:09;12.57;;;5.80;;
75586;SDS011;64164;50.156;14.570;2022-12-18T08:11:34;6.38;;;4.38;;
75586;SDS011;64164;50.156;14.570;2022-12-18T08:13:59;7.30;;;3.17;;
75586;SDS011;64164;50.156;14.570;2022-12-18T08:16:25;6.30;;;2.47;;
75586;SDS011;64164;50.156;14.570;2022-12-18T08:18:51;5.80;;;2.73;;
75586;SDS011;64164;50.156;14.570;2022-12-18T08:21:17;14.88;;;5.47;;
75586;SDS011;64164;50.156;14.570;2022-12-18T08:23:43;9.35;;;3.47;;
75586;SDS011;64164;50.156;14.570;2022-12-18T08:26:12;9.27;;;3.58;;
75586;SDS011;64164;50.156;14.570;2022-12-18T08:31:02;15.15;;;3.50;;
75586;SDS011;64164;50.156;14.570;2022-12-18T08:33:27;7.97;;;2.67;;
75586;SDS011;64164;50.156;14.570;2022-12-18T08:35:52;7.47;;;4.03;;
75586;SDS011;64164;50.156;14.570;2022-12-18T08:38:18;8.53;;;5.40;;
75586;SDS011;64164;50.156;14.570;2022-12-18T08:40:43;11.53;;;5.23;;
75586;SDS011;64164;50.156;14.570;2022-12-18T08:43:09;13.10;;;5.60;;
75586;SDS011;64164;50.156;14.570;2022-12-18T08:45:53;3.13;;;2.80;;
75586;SDS011;64164;50.156;14.570;2022-12-18T08:48:18;7.03;;;4.00;;
75586;SDS011;64164;50.156;14.570;2022-12-18T08:50:43;6.13;;;3.07;;
75586;SDS011;64164;50.156;14.570;2022-12-18T08:53:08;13.53;;;4.53;;
75586;SDS011;64164;50.156;14.570;2022-12-18T08:55:34;16.23;;;4.55;;
75586;SDS011;64164;50.156;14.570;2022-12-18T08:57:59;16.00;;;5.38;;
75586;SDS011;64164;50.156;14.570;2022-12-18T09:00:25;8.93;;;2.70;;
75586;SDS011;64164;50.156;14.570;2022-12-18T09:02:50;6.07;;;3.40;;
75586;SDS011;64164;50.156;14.570;2022-12-18T09:05:15;11.07;;;5.40;;
75586;SDS011;64164;50.156;14.570;2022-12-18T09:07:40;17.07;;;6.20;;
75586;SDS011;64164;50.156;14.570;2022-12-18T09:10:05;12.03;;;4.37;;
75586;SDS011;64164;50.156;14.570;2022-12-18T09:12:31;9.02;;;4.70;;
75586;SDS011;64164;50.156;14.570;2022-12-18T09:14:56;14.13;;;5.28;;
75586;SDS011;64164;50.156;14.570;2022-12-18T09:17:21;14.17;;;4.13;;
75586;SDS011;64164;50.156;14.570;2022-12-18T09:19:47;12.93;;;4.40;;
75586;SDS011;64164;50.156;14.570;2022-12-18T09:22:12;14.93;;;6.37;;
75586;SDS011;64164;50.156;14.570;2022-12-18T09:24:37;9.63;;;5.83;;
75586;SDS011;64164;50.156;14.570;2022-12-18T09:27:02;13.27;;;4.03;;
75586;SDS011;64164;50.156;14.570;2022-12-18T09:29:27;10.93;;;4.37;;
75586;SDS011;64164;50.156;14.570;2022-12-18T09:31:53;12.13;;;4.00;;
75586;SDS011;64164;50.156;14.570;2022-12-18T09:34:18;23.47;;;7.83;;
75586;SDS011;64164;50.156;14.570;2022-12-18T09:36:45;10.52;;;4.35;;
75586;SDS011;64164;50.156;14.570;2022-12-18T09:39:11;15.00;;;6.30;;
75586;SDS011;64164;50.156;14.570;2022-12-18T09:41:53;9.63;;;3.73;;
75586;SDS011;64164;50.156;14.570;2022-12-18T09:46:50;12.32;;;4.68;;
75586;SDS011;64164;50.156;14.570;2022-12-18T09:49:17;12.27;;;4.22;;
75586;SDS011;64164;50.156;14.570;2022-12-18T09:51:54;18.05;;;7.03;;
75586;SDS011;64164;50.156;14.570;2022-12-18T09:54:35;24.08;;;6.25;;
75586;SDS011;64164;50.156;14.570;2022-12-18T09:57:03;13.32;;;4.05;;
75586;SDS011;64164;50.156;14.570;2022-12-18T09:59:30;12.93;;;6.47;;
75586;SDS011;64164;50.156;14.570;2022-12-18T10:01:57;14.50;;;8.32;;
75586;SDS011;64164;50.156;14.570;2022-12-18T10:04:22;15.73;;;6.10;;
75586;SDS011;64164;50.156;14.570;2022-12-18T10:11:56;11.10;;;6.13;;
75586;SDS011;64164;50.156;14.570;2022-12-18T10:14:30;11.75;;;5.75;;
75586;SDS011;64164;50.156;14.570;2022-12-18T10:19:43;12.50;;;4.85;;
75586;SDS011;64164;50.156;14.570;2022-12-18T10:25:09;8.00;;;4.03;;
75586;SDS011;64164;50.156;14.570;2022-12-18T10:27:39;15.88;;;5.70;;
75586;SDS011;64164;50.156;14.570;2022-12-18T10:30:16;6.53;;;3.10;;
75586;SDS011;64164;50.156;14.570;2022-12-18T10:32:41;14.07;;;5.07;;
75586;SDS011;64164;50.156;14.570;2022-12-18T10:35:23;17.45;;;6.05;;
75586;SDS011;64164;50.156;14.570;2022-12-18T10:40:32;17.08;;;5.28;;
75586;SDS011;64164;50.156;14.570;2022-12-18T10:43:04;15.32;;;6.32;;
75586;SDS011;64164;50.156;14.570;2022-12-18T10:45:30;23.85;;;6.65;;
75586;SDS011;64164;50.156;14.570;2022-12-18T10:47:55;15.83;;;6.60;;
75586;SDS011;64164;50.156;14.570;2022-12-18T10:50:26;18.13;;;6.43;;
75586;SDS011;64164;50.156;14.570;2022-12-18T10:52:57;11.20;;;6.13;;
75586;SDS011;64164;50.156;14.570;2022-12-18T10:55:23;16.13;;;6.72;;
75586;SDS011;64164;50.156;14.570;2022-12-18T10:57:49;18.13;;;7.78;;
75586;SDS011;64164;50.156;14.570;2022-12-18T11:02:46;20.05;;;6.55;;
75586;SDS011;64164;50.156;14.570;2022-12-18T11:05:28;13.18;;;5.57;;
75586;SDS011;64164;50.156;14.570;2022-12-18T11:07:54;19.23;;;5.57;;
75586;SDS011;64164;50.156;14.570;2022-12-18T11:10:20;15.93;;;7.05;;
75586;SDS011;64164;50.156;14.570;2022-12-18T11:12:46;13.65;;;6.45;;
75586;SDS011;64164;50.156;14.570;2022-12-18T11:15:21;15.40;;;6.50;;
75586;SDS011;64164;50.156;14.570;2022-12-18T11:17:48;14.50;;;5.20;;
75586;SDS011;64164;50.156;14.570;2022-12-18T11:20:31;14.98;;;5.75;;
75586;SDS011;64164;50.156;14.570;2022-12-18T11:23:00;9.65;;;5.38;;
75586;SDS011;64164;50.156;14.570;2022-12-18T11:25:26;13.13;;;5.80;;
75586;SDS011;64164;50.156;14.570;2022-12-18T11:27:53;11.60;;;4.50;;
75586;SDS011;64164;50.156;14.570;2022-12-18T11:32:44;12.52;;;5.05;;
75586;SDS011;64164;50.156;14.570;2022-12-18T11:38:26;11.52;;;3.92;;
75586;SDS011;64164;50.156;14.570;2022-12-18T11:46:36;10.48;;;4.97;;
75586;SDS011;64164;50.156;14.570;2022-12-18T11:49:20;7.88;;;3.10;;
75586;SDS011;64164;50.156;14.570;2022-12-18T11:51:56;11.55;;;2.97;;
75586;SDS011;64164;50.156;14.570;2022-12-18T11:54:23;12.32;;;5.35;;
75586;SDS011;64164;50.156;14.570;2022-12-18T11:56:51;4.07;;;1.90;;
75586;SDS011;64164;50.156;14.570;2022-12-18T12:01:54;8.80;;;3.83;;
75586;SDS011;64164;50.156;14.570;2022-12-18T12:09:31;9.17;;;2.43;;
75586;SDS011;64164;50.156;14.570;2022-12-18T12:19:35;9.98;;;5.53;;
75586;SDS011;64164;50.156;14.570;2022-12-18T12:24:40;8.32;;;3.08;;
75586;SDS011;64164;50.156;14.570;2022-12-18T12:35:08;7.88;;;2.35;;
75586;SDS011;64164;50.156;14.570;2022-12-18T12:40:24;5.40;;;2.50;;
75586;SDS011;64164;50.156;14.570;2022-12-18T12:48:07;6.78;;;3.97;;
75586;SDS011;64164;50.156;14.570;2022-12-18T12:50:36;14.20;;;3.50;;
75586;SDS011;64164;50.156;14.570;2022-12-18T12:53:05;7.10;;;4.22;;
75586;SDS011;64164;50.156;14.570;2022-12-18T12:55:31;15.27;;;5.88;;
75586;SDS011;64164;50.156;14.570;2022-12-18T13:00:44;8.63;;;4.35;;
75586;SDS011;64164;50.156;14.570;2022-12-18T13:05:43;10.50;;;2.95;;
75586;SDS011;64164;50.156;14.570;2022-12-18T13:08:12;13.45;;;5.63;;
75586;SDS011;64164;50.156;14.570;2022-12-18T13:10:46;13.18;;;6.22;;
75586;SDS011;64164;50.156;14.570;2022-12-18T13:13:12;17.90;;;6.07;;
75586;SDS011;64164;50.156;14.570;2022-12-18T13:15:45;9.48;;;3.95;;
75586;SDS011;64164;50.156;14.570;2022-12-18T13:18:16;4.57;;;2.13;;
75586;SDS011;64164;50.156;14.570;2022-12-18T13:20:43;12.95;;;4.45;;
75586;SDS011;64164;50.156;14.570;2022-12-18T13:28:49;12.70;;;4.40;;
75586;SDS011;64164;50.156;14.570;2022-12-18T13:31:08;8.68;;;5.18;;
75586;SDS011;64164;50.156;14.570;2022-12-18T13:33:37;6.77;;;2.63;;
75586;SDS011;64164;50.156;14.570;2022-12-18T13:38:35;7.38;;;3.05;;
75586;SDS011;64164;50.156;14.570;2022-12-18T13:41:01;8.20;;;3.53;;
75586;SDS011;64164;50.156;14.570;2022-12-18T13:43:28;9.35;;;5.18;;
75586;SDS011;64164;50.156;14.570;2022-12-18T13:48:21;4.30;;;2.00;;
75586;SDS011;64164;50.156;14.570;2022-12-18T13:50:55;6.90;;;3.40;;
75586;SDS011;64164;50.156;14.570;2022-12-18T13:53:23;6.50;;;3.13;;
75586;SDS011;64164;50.156;14.570;2022-12-18T13:55:49;13.93;;;4.90;;
75586;SDS011;64164;50.156;14.570;2022-12-18T13:58:15;9.45;;;4.15;;
75586;SDS011;64164;50.156;14.570;2022-12-18T14:00:41;13.30;;;4.37;;
75586;SDS011;64164;50.156;14.570;2022-12-18T14:03:17;13.23;;;4.65;;
75586;SDS011;64164;50.156;14.570;2022-12-18T14:05:43;14.95;;;3.97;;
75586;SDS011;64164;50.156;14.570;2022-12-18T14:08:14;11.50;;;4.75;;
75586;SDS011;64164;50.156;14.570;2022-12-18T14:10:40;12.73;;;3.80;;
75586;SDS011;64164;50.156;14.570;2022-12-18T14:13:06;12.32;;;3.70;;
75586;SDS011;64164;50.156;14.570;2022-12-18T14:15:40;17.83;;;5.22;;
75586;SDS011;64164;50.156;14.570;2022-12-18T14:18:16;10.35;;;3.83;;
75586;SDS011;64164;50.156;14.570;2022-12-18T14:20:44;6.65;;;3.38;;
75586;SDS011;64164;50.156;14.570;2022-12-18T14:25:53;8.80;;;2.90;;
75586;SDS011;64164;50.156;14.570;2022-12-18T14:28:18;11.03;;;4.53;;
75586;SDS011;64164;50.156;14.570;2022-12-18T14:30:44;11.40;;;4.47;;
75586;SDS011;64164;50.156;14.570;2022-12-18T14:35:36;10.57;;;5.57;;
75586;SDS011;64164;50.156;14.570;2022-12-18T14:40:54;10.00;;;4.03;;
75586;SDS011;64164;50.156;14.570;2022-12-18T14:43:20;9.30;;;3.72;;
75586;SDS011;64164;50.156;14.570;2022-12-18T14:45:46;7.07;;;2.72;;
75586;SDS011;64164;50.156;14.570;2022-12-18T14:50:36;8.13;;;3.63;;
75586;SDS011;64164;50.156;14.570;2022-12-18T14:53:01;10.47;;;4.07;;
75586;SDS011;64164;50.156;14.570;2022-12-18T14:55:27;8.87;;;3.60;;
75586;SDS011;64164;50.156;14.570;2022-12-18T14:57:52;6.87;;;2.77;;
75586;SDS011;64164;50.156;14.570;2022-12-18T15:00:20;8.00;;;3.33;;
75586;SDS011;64164;50.156;14.570;2022-12-18T15:02:50;14.07;;;5.13;;
75586;SDS011;64164;50.156;14.570;2022-12-18T15:05:26;11.32;;;2.25;;
75586;SDS011;64164;50.156;14.570;2022-12-18T15:07:53;8.73;;;4.13;;
75586;SDS011;64164;50.156;14.570;2022-12-18T15:10:26;7.70;;;2.97;;
75586;SDS011;64164;50.156;14.570;2022-12-18T15:17:59;7.20;;;2.75;;
75586;SDS011;64164;50.156;14.570;2022-12-18T15:20:25;20.52;;;5.47;;
75586;SDS011;64164;50.156;14.570;2022-12-18T15:22:50;5.97;;;2.43;;
75586;SDS011;64164;50.156;14.570;2022-12-18T15:28:21;20.83;;;3.67;;
75586;SDS011;64164;50.156;14.570;2022-12-18T15:33:17;7.03;;;3.33;;
75586;SDS011;64164;50.156;14.570;2022-12-18T15:35:46;7.22;;;3.38;;
75586;SDS011;64164;50.156;14.570;2022-12-18T15:38:11;10.90;;;4.13;;
75586;SDS011;64164;50.156;14.570;2022-12-18T15:40:37;9.97;;;4.83;;
75586;SDS011;64164;50.156;14.570;2022-12-18T15:43:04;7.67;;;4.20;;
75586;SDS011;64164;50.156;14.570;2022-12-18T15:45:48;10.98;;;4.82;;
75586;SDS011;64164;50.156;14.570;2022-12-18T15:48:20;3.60;;;2.10;;
75586;SDS011;64164;50.156;14.570;2022-12-18T15:50:46;7.50;;;3.05;;
75586;SDS011;64164;50.156;14.570;2022-12-18T15:53:11;7.40;;;3.90;;
75586;SDS011;64164;50.156;14.570;2022-12-18T15:55:36;8.83;;;4.67;;
75586;SDS011;64164;50.156;14.570;2022-12-18T15:58:21;9.52;;;4.15;;
75586;SDS011;64164;50.156;14.570;2022-12-18T16:00:46;9.00;;;4.00;;
75586;SDS011;64164;50.156;14.570;2022-12-18T16:03:11;7.00;;;4.83;;
75586;SDS011;64164;50.156;14.570;2022-12-18T16:05:36;7.27;;;4.07;;
75586;SDS011;64164;50.156;14.570;2022-12-18T16:08:01;5.30;;;4.20;;
75586;SDS011;64164;50.156;14.570;2022-12-18T16:10:27;12.83;;;5.10;;
75586;SDS011;64164;50.156;14.570;2022-12-18T16:12:52;9.77;;;4.07;;
75586;SDS011;64164;50.156;14.570;2022-12-18T16:15:17;7.73;;;3.07;;
75586;SDS011;64164;50.156;14.570;2022-12-18T16:17:43;6.70;;;2.77;;
75586;SDS011;64164;50.156;14.570;2022-12-18T16:20:12;9.77;;;3.90;;
75586;SDS011;64164;50.156;14.570;2022-12-18T16:22:37;12.20;;;4.45;;
75586;SDS011;64164;50.156;14.570;2022-12-18T16:25:03;10.63;;;4.80;;
75586;SDS011;64164;50.156;14.570;2022-12-18T16:27:30;15.85;;;7.65;;
75586;SDS011;64164;50.156;14.570;2022-12-18T16:29:55;9.47;;;4.97;;
75586;SDS011;64164;50.156;14.570;2022-12-18T16:32:21;11.87;;;5.10;;
75586;SDS011;64164;50.156;14.570;2022-12-18T16:34:46;14.40;;;5.63;;
75586;SDS011;64164;50.156;14.570;2022-12-18T16:37:12;3.45;;;2.53;;